KPNM

Princeton Municipal Airport

Princeton, Minnesota, USA
METAR KPNM 151555Z AUTO 15004KT 10SM CLR M01/M02 A3011 RMK AO2
Observed Flight Rules
Dec-15 @ 15:55 UTC (30 minutes ago) Visual Flight Rules
Wind Visibility Clouds
150° at 4 knots 10 miles
  • Clear skies
Temperatures Readings
Current -1°C / 30°F
Dewpoint -2°C / 28°F
Humidity 93%
Altimeter 30.11" Hg
Pressure 1020 hPa
Elevation 298
METAR KPNM 151555Z AUTO 15004KT 10SM CLR M01/M02 A3011 RMK AO2
Observed Flight Rules
Dec-15 @ 15:55 UTC
(30 minutes ago)
VFR
Wind Visibility
150° at 4 knots 10 miles
Clouds
  • Clear skies
Temperature Dewpoint
-1°C / 30°F -2°C / 28°F
Humidity Altimeter Pressure
93% 30.11" Hg 1020 hPa